Lowell, MA (01853)

8:31 PM EDT on March 28, 2015 (GMT -0400)
Dracut Ctr | | Change Station
CLOSE
Current Station
Personal Weather Station
Location: Dracut, MA
Elevation: 174 ft
Nearby Weather Stations
Active Advisory: Special Statement Active Notice: Public Information Statement

Elev 174 ft 42.67 °N, 71.31 °W | Updated 26 seconds ago

Snow
Snow
32.4 °F
Feels Like 32 °F
N
2.0
Wind Variable Wind from NW
Gusts 2.0 mph

Today
High -- | Low -- °F
--% Chance of Precip.
Yesterday
High -- | Low -- °F
Precip. -- in
6:34 AM 7:06 PM
Waxing Gibbous, 66% visible
Pressure 29.92 in
Visibility 10.0 miles
Clouds Scattered Clouds 3100 ft
Mostly Cloudy 3600 ft
Overcast 5000 ft
Windchill 32 °F
Dew Point 30 °F
Humidity 91%
Rainfall 0.09 in
Snow Depth Not available.
UV 0 out of 12
Pollen .90 out of 12
Air Quality Not available.
Flu Activity Not available.
METAR KLWM 282354Z AUTO 28005KT 10SM SCT031 BKN036 OVC050 01/M01 A2992 RMK AO2 SNE30 SLP132 P0000 60000 T00061006 10011 20000 51024

More Conditions Fewer Conditions

Pressure 29.92 in
Visibility 10.0 miles
Clouds Scattered Clouds 3100 ft
Mostly Cloudy 3600 ft
Overcast 5000 ft
Windchill 32 °F
Dew Point 30 °F
Humidity 91%
Rainfall 0.09 in
Snow Depth Not available.
UV 0 out of 12
Pollen .90 out of 12
Air Quality Not available.
Flu Activity Not available.
METAR KLWM 282354Z AUTO 28005KT 10SM SCT031 BKN036 OVC050 01/M01 A2992 RMK AO2 SNE30 SLP132 P0000 60000 T00061006 10011 20000 51024

More Conditions Fewer Conditions

10-Day Weather Forecast

Almanac

Astronomy

Mar. 28, 2015 Rise Set
Actual Time
Civil Twilight
Nautical Twilight
Astronomical Twilight
Moon
Length of Visible Light
Length of Day
Tomorrow will be .
, % of the Moon is Illuminated

Today's Extremes

State Highs State Lows

Community

WunderPhotos

Upload Photos

1,809,139 photos uploaded!

WunderBlogs® & News

Nearby

Air Quality

  Air Quality AQ Index Pollutant
Not available.

Snow Depth

Station Depth Elevation

Earthquake Activity

City Distance Mag. Time & Date
Minimum magnitude displayed is 2.5.

Coastal Water Temperatures

Place Temperature

Stations

Nearby Weather Stations

Station Location Temp. Windchill Dew Point Humidity Wind Precip. Elev Updated Type
                   
Special Statement
Statement as of 5:15 PM EDT on March 28, 2015

... Light snow may still accumulate this evening in eastern
Connecticut... eastern Massachusetts... and Rhode Island...

During the day today... some higher elevation areas have
received between 1 and 3 inches of snow... but it was mainly on
grassy surfaces. As temperatures drop to the freezing mark and into
the upper 20s over interior areas this evening... snow may begin to
coat Road surfaces. Only at most an additional inch or two is
expected before snow gradually tapers off overnight.

Travelers should be prepared for some slippery roads and allow
extra time to reach their destinations tonight.

Please see our winter weather Page for more details at...
weather.Gov/Boston/winter.

Field